Dellwood, Missouri
Current Conditions -  °F | °C
As of 10:51 PM on Wednesday 17 Dec 2014 (Local Time) from KSTL Reporting Station
Overcast Overcast  
Wind Chill: 25°   Ceiling: 9000
Heat Index: 31°   Visibility: 10mi
Dew Point: 23°   Wind: 6mph
Humidity: 72%   Direction: 50°NE
Pressure: 30.3"   Gusts: NA
Location:  38.7423°N, 90.2608°W
Report Text: KSTL 180451Z 05005KT 10SM BKN090 OVC140 M01/M05 A3030 RMK AO2 SLP272 T10061050
Loading
Personal Weather Stations






























Interactive Weather Map New forecast layout! Learn more

10-Day Weather Forecast

Advertisements
Track Severe Weather on mobile